Time;durP1;ratioP1;P1;durP2;ratioP2;P2;SDS_P1;SDS_P2;PMS_P1;PMS_P2;Temp;Humidity;BMP_temperature;BMP_pressure;BME280_temperature;BME280_humidity;BME280_pressure;Samples;Min_cycle;Max_cycle;Signal;HPM_P1;HPM_P2
2023/10/02 00:02:05;;;;;;;16.67;7.15;;;;;;;21.49;85.29;99295.09;4917150;29;20055;-87
2023/10/02 00:04:49;;;;;;;14.23;7.05;;;;;;;21.35;85.09;99280.59;4912312;29;20048;-85
2023/10/02 00:07:35;;;;;;;16.27;6.95;;;;;;;21.13;85.59;99270.91;4898826;29;20043;-85
2023/10/02 00:10:22;;;;;;;15.57;8.13;;;;;;;21.16;85.36;99275.72;4903800;29;20056;-84
2023/10/02 00:13:06;;;;;;;20.25;8.48;;;;;;;21.12;85.32;99282.63;4910540;29;20047;-84
2023/10/02 00:15:53;;;;;;;21.10;8.70;;;;;;;21.11;85.40;99294.38;4916289;29;20043;-84
2023/10/02 00:18:37;;;;;;;12.90;7.10;;;;;;;21.06;85.56;99295.13;4920887;29;20055;-85
2023/10/02 00:21:22;;;;;;;17.42;7.50;;;;;;;21.09;85.43;99297.28;4901379;29;20082;-87
2023/10/02 00:24:06;;;;;;;18.17;8.73;;;;;;;21.23;86.27;99286.97;4909813;29;20043;-86
2023/10/02 00:26:53;;;;;;;17.00;8.05;;;;;;;21.29;85.52;99279.00;4887946;29;20619;-86
2023/10/02 00:29:51;;;;;;;16.08;7.25;;;;;;;21.28;86.03;99266.69;4911124;29;20043;-85
2023/10/02 00:32:40;;;;;;;16.83;7.50;;;;;;;21.24;85.81;99261.88;4916663;29;20055;-86
2023/10/02 00:35:24;;;;;;;20.95;9.07;;;;;;;21.22;85.95;99276.53;4912597;29;20570;-86
2023/10/02 00:38:08;;;;;;;18.25;8.35;;;;;;;21.31;85.95;99277.66;4902018;29;20079;-86
2023/10/02 00:40:52;;;;;;;15.00;8.30;;;;;;;21.29;86.32;99284.31;4921159;29;20133;-83
2023/10/02 00:43:45;;;;;;;16.70;8.40;;;;;;;21.23;86.51;99273.63;4906351;29;20485;-87
2023/10/02 00:46:34;;;;;;;19.57;8.47;;;;;;;21.29;86.03;99273.66;4903750;29;20533;-85
2023/10/02 00:49:28;;;;;;;17.52;9.30;;;;;;;21.35;85.77;99275.28;4889207;29;20103;-86
2023/10/02 00:52:12;;;;;;;12.85;7.25;;;;;;;21.30;86.34;99283.25;4891597;29;20096;-86
2023/10/02 00:54:56;;;;;;;16.13;7.88;;;;;;;21.51;85.58;99287.63;4912479;29;20055;-86
2023/10/02 00:57:43;;;;;;;14.88;7.30;;;;;;;21.42;85.51;99286.53;4903224;29;20054;-86
2023/10/02 01:00:36;;;;;;;16.02;7.95;;;;;;;21.39;85.76;99289.69;4903611;29;20114;-86
2023/10/02 01:03:22;;;;;;;17.50;8.17;;;;;;;21.32;85.65;99305.97;4904946;29;20043;-86
2023/10/02 01:06:11;;;;;;;18.50;8.65;;;;;;;21.17;85.96;99290.66;4912083;29;20070;-86
2023/10/02 01:08:56;;;;;;;16.30;8.15;;;;;;;21.20;85.27;99302.69;4904028;29;20096;-86
2023/10/02 01:11:40;;;;;;;18.65;8.13;;;;;;;20.98;87.12;99285.75;4912484;29;20518;-85
2023/10/02 01:17:33;;;;;;;18.45;8.73;;;;;;;21.12;86.42;99282.63;4917697;29;20038;-86
2023/10/02 01:20:21;;;;;;;15.75;7.95;;;;;;;21.31;86.43;99287.53;4903272;29;20047;-85
2023/10/02 01:23:16;;;;;;;14.52;8.32;;;;;;;21.21;86.31;99283.72;4901017;29;20080;-85
2023/10/02 01:26:00;;;;;;;17.27;7.72;;;;;;;21.15;86.24;99274.09;4906391;29;20047;-84
2023/10/02 01:28:51;;;;;;;15.32;7.55;;;;;;;21.23;86.04;99286.97;4920965;29;20099;-86
2023/10/02 01:31:35;;;;;;;14.73;8.15;;;;;;;21.02;86.02;99271.88;4894160;29;20080;-85
2023/10/02 01:34:39;;;;;;;17.40;8.60;;;;;;;21.05;85.95;99293.53;4901054;29;20510;-85
2023/10/02 01:37:36;;;;;;;14.27;7.75;;;;;;;21.04;85.76;99296.47;4910132;29;20517;-86
2023/10/02 01:40:29;;;;;;;16.40;8.45;;;;;;;20.92;86.20;99285.97;4901020;29;20056;-85
2023/10/02 01:43:14;;;;;;;21.80;10.77;;;;;;;20.85;86.51;99280.88;4906803;29;20078;-86
2023/10/02 01:46:03;;;;;;;17.40;8.02;;;;;;;20.79;86.64;99266.66;4906945;29;20334;-85
2023/10/02 01:48:48;;;;;;;16.98;8.73;;;;;;;20.76;86.75;99263.69;4908046;29;20043;-86
2023/10/02 01:51:35;;;;;;;16.33;8.93;;;;;;;20.72;86.89;99265.28;4917759;29;20453;-87
2023/10/02 01:54:22;;;;;;;19.40;8.75;;;;;;;20.75;87.00;99262.09;4905636;29;20047;-85
2023/10/02 01:57:07;;;;;;;19.58;9.10;;;;;;;20.48;87.04;99241.66;4893791;29;20112;-86
2023/10/02 01:59:51;;;;;;;21.02;9.55;;;;;;;20.43;87.40;99247.72;4888189;29;20410;-85
2023/10/02 02:02:35;;;;;;;14.85;7.93;;;;;;;20.47;87.21;99234.72;4910474;29;20094;-85
2023/10/02 02:05:19;;;;;;;18.40;9.27;;;;;;;20.48;87.32;99244.31;4916942;29;20047;-90
2023/10/02 02:08:21;;;;;;;15.35;7.43;;;;;;;20.38;87.13;99240.50;4909911;29;20047;-86
2023/10/02 02:11:16;;;;;;;20.10;9.00;;;;;;;20.45;87.24;99252.81;4877829;29;20087;-86
2023/10/02 02:14:03;;;;;;;23.10;9.07;;;;;;;20.32;87.27;99260.19;4909575;29;20161;-85
2023/10/02 02:16:47;;;;;;;20.05;9.95;;;;;;;20.16;87.38;99253.09;4902737;29;20512;-86
2023/10/02 02:19:31;;;;;;;18.13;8.77;;;;;;;20.26;87.10;99264.66;4888167;29;20411;-84
2023/10/02 02:22:17;;;;;;;16.75;8.70;;;;;;;20.25;87.10;99268.38;4906952;29;20055;-87
2023/10/02 02:25:02;;;;;;;15.27;8.00;;;;;;;20.32;86.69;99276.16;4911180;29;20074;-84
2023/10/02 02:27:47;;;;;;;22.73;9.10;;;;;;;20.27;87.25;99276.13;4911050;29;20103;-83
2023/10/02 02:30:40;;;;;;;22.98;9.15;;;;;;;20.17;87.44;99270.69;4897946;29;20119;-82
2023/10/02 02:33:38;;;;;;;24.27;9.38;;;;;;;20.17;86.81;99260.03;4900285;29;20047;-83
2023/10/02 02:36:22;;;;;;;17.05;8.23;;;;;;;20.10;87.22;99266.38;4908444;29;20522;-85
2023/10/02 02:39:20;;;;;;;20.88;8.65;;;;;;;20.12;86.85;99269.59;4892040;29;20115;-87
2023/10/02 02:42:37;;;;;;;13.35;8.20;;;;;;;20.04;86.67;99274.56;4889914;29;20074;-86
2023/10/02 02:45:47;;;;;;;17.23;8.57;;;;;;;19.94;86.37;99272.59;4901693;29;20043;-86
2023/10/02 02:48:43;;;;;;;18.27;8.13;;;;;;;19.90;87.02;99276.81;4894171;29;20182;-86
2023/10/02 02:51:28;;;;;;;20.30;8.27;;;;;;;19.80;87.18;99278.28;4898259;29;20407;-85
2023/10/02 02:54:13;;;;;;;21.85;8.68;;;;;;;19.75;86.98;99256.94;4881483;29;20372;-86
2023/10/02 02:56:58;;;;;;;12.25;7.43;;;;;;;19.80;86.82;99256.97;4901549;29;20403;-85
2023/10/02 02:59:42;;;;;;;16.95;7.90;;;;;;;19.79;86.73;99257.25;4894184;29;20084;-84
2023/10/02 03:02:26;;;;;;;18.00;8.27;;;;;;;19.68;86.75;99259.00;4904808;29;20401;-85
2023/10/02 03:05:11;;;;;;;21.60;7.85;;;;;;;19.74;87.03;99252.66;4893396;29;20144;-84
2023/10/02 03:07:56;;;;;;;20.27;9.38;;;;;;;19.68;87.22;99261.66;4914496;29;20122;-85
2023/10/02 03:10:40;;;;;;;19.35;8.32;;;;;;;19.73;86.77;99250.25;4894941;29;20474;-84
2023/10/02 03:13:28;;;;;;;25.45;8.25;;;;;;;19.62;87.74;99239.50;4912771;29;20047;-84
2023/10/02 03:16:13;;;;;;;19.55;8.38;;;;;;;19.72;87.22;99237.97;4907772;29;20047;-85
2023/10/02 03:19:03;;;;;;;20.23;8.68;;;;;;;19.74;86.83;99241.19;4901930;29;20087;-84
2023/10/02 03:21:47;;;;;;;21.50;8.73;;;;;;;19.68;86.91;99237.69;4895239;29;20105;-85
2023/10/02 03:24:33;;;;;;;20.98;8.18;;;;;;;19.55;86.91;99220.22;4896970;29;20039;-85
2023/10/02 03:27:17;;;;;;;18.00;7.78;;;;;;;19.65;86.23;99222.19;4915411;29;20108;-84
2023/10/02 03:30:06;;;;;;;19.63;8.25;;;;;;;19.50;86.56;99231.63;4906705;29;20039;-85
2023/10/02 03:32:50;;;;;;;13.43;7.32;;;;;;;19.50;86.74;99226.31;4916610;29;20043;-85
2023/10/02 03:35:39;;;;;;;23.67;8.65;;;;;;;19.48;86.79;99232.94;4890548;29;20087;-85
2023/10/02 03:38:32;;;;;;;14.30;6.93;;;;;;;19.54;86.48;99232.75;4906225;29;20046;-83
2023/10/02 03:41:16;;;;;;;24.38;7.70;;;;;;;19.58;86.50;99229.56;4910405;29;20043;-83
2023/10/02 03:44:01;;;;;;;18.65;7.82;;;;;;;19.59;86.23;99226.69;4902163;29;20184;-83
2023/10/02 03:46:45;;;;;;;18.10;8.00;;;;;;;19.53;86.11;99228.47;4899782;29;20075;-83
2023/10/02 03:49:32;;;;;;;20.65;8.82;;;;;;;19.54;85.99;99237.25;4898216;29;20161;-87
2023/10/02 03:52:17;;;;;;;14.82;7.82;;;;;;;19.61;86.06;99232.56;4906812;29;20086;-86
2023/10/02 03:55:15;;;;;;;19.33;8.02;;;;;;;19.55;85.59;99233.53;4918300;29;20082;-85
2023/10/02 03:58:02;;;;;;;19.70;8.10;;;;;;;19.55;85.43;99233.53;4897323;29;20054;-85
2023/10/02 04:00:51;;;;;;;21.42;8.75;;;;;;;19.50;85.61;99228.16;4911850;29;20466;-86
2023/10/02 04:03:53;;;;;;;18.27;7.85;;;;;;;19.47;85.37;99236.66;4909300;29;20039;-85
2023/10/02 04:06:37;;;;;;;21.30;7.70;;;;;;;19.45;85.59;99236.88;4902653;29;20104;-85
2023/10/02 04:09:23;;;;;;;22.05;8.80;;;;;;;19.50;85.68;99231.63;4902519;29;20052;-85
2023/10/02 04:12:07;;;;;;;20.02;7.63;;;;;;;19.29;85.36;99225.25;4903736;29;20052;-85
2023/10/02 04:14:54;;;;;;;19.95;8.48;;;;;;;19.33;85.58;99238.88;4897685;29;20100;-85
2023/10/02 04:17:38;;;;;;;18.17;7.78;;;;;;;19.30;86.07;99247.38;4907070;29;20522;-85
2023/10/02 04:20:28;;;;;;;13.57;7.07;;;;;;;19.27;85.81;99244.16;4895694;29;20510;-83
2023/10/02 04:23:21;;;;;;;18.65;8.40;;;;;;;19.09;86.10;99228.47;4907274;29;20091;-85
2023/10/02 04:26:05;;;;;;;17.48;6.85;;;;;;;18.95;86.76;99236.78;4893693;29;20051;-85
2023/10/02 04:32:14;;;;;;;19.83;8.07;;;;;;;19.44;85.67;99245.13;4904165;29;20530;-86
2023/10/02 04:34:58;;;;;;;20.42;7.43;;;;;;;19.45;85.75;99238.75;4891828;29;20040;-83
2023/10/02 04:37:42;;;;;;;13.57;6.65;;;;;;;19.40;85.65;99236.84;4914401;29;20062;-85
2023/10/02 04:40:37;;;;;;;15.68;7.55;;;;;;;19.35;85.31;99228.78;4906426;29;20060;-85
2023/10/02 04:43:25;;;;;;;17.00;7.93;;;;;;;19.29;85.50;99235.13;4916491;29;20043;-86
2023/10/02 04:46:09;;;;;;;18.65;7.35;;;;;;;19.19;85.75;99236.56;4913883;29;20455;-84
2023/10/02 04:48:59;;;;;;;14.93;7.43;;;;;;;19.40;85.11;99236.84;4909942;29;20055;-86
2023/10/02 04:51:46;;;;;;;14.73;7.78;;;;;;;19.30;85.60;99244.72;4919739;29;20078;-84
2023/10/02 04:54:31;;;;;;;12.98;6.38;;;;;;;19.28;85.70;99244.94;4910735;29;20051;-85
2023/10/02 04:57:15;;;;;;;20.33;7.68;;;;;;;19.27;85.87;99233.50;4910303;29;20055;-87
2023/10/02 05:00:00;;;;;;;16.02;7.05;;;;;;;19.32;85.51;99230.09;4902504;29;20050;-87
2023/10/02 05:02:47;;;;;;;22.10;8.38;;;;;;;19.20;85.53;99227.53;4914800;29;20138;-87
2023/10/02 05:05:36;;;;;;;21.50;7.10;;;;;;;19.30;85.70;99232.19;4904710;29;20052;-86
2023/10/02 05:11:52;;;;;;;18.35;7.35;;;;;;;19.33;85.71;99225.56;4906497;29;20066;-85
2023/10/02 05:14:51;;;;;;;19.88;8.40;;;;;;;19.18;85.30;99213.69;4894024;29;20121;-85
2023/10/02 05:17:46;;;;;;;15.20;6.40;;;;;;;19.15;85.51;99232.00;4908081;29;20107;-85
2023/10/02 05:20:38;;;;;;;20.95;7.60;;;;;;;19.15;85.93;99230.16;4912103;29;20124;-85
2023/10/02 05:23:22;;;;;;;19.23;7.72;;;;;;;19.15;86.12;99230.16;4906135;29;20059;-84
2023/10/02 05:26:11;;;;;;;20.75;7.72;;;;;;;19.34;85.90;99248.47;4914288;29;20508;-85
2023/10/02 05:28:55;;;;;;;16.35;7.43;;;;;;;19.23;85.35;99243.00;4911907;29;20055;-85
2023/10/02 05:31:40;;;;;;;18.10;7.10;;;;;;;19.24;85.14;99241.97;4914302;29;20402;-86
2023/10/02 05:34:25;;;;;;;15.10;6.18;;;;;;;19.20;85.16;99238.19;4915778;29;20040;-86
2023/10/02 05:39:53;;;;;;;14.00;6.50;;;;;;;18.89;85.74;99245.75;4907862;29;20046;-84
2023/10/02 05:42:37;;;;;;;21.42;7.70;;;;;;;19.00;85.76;99248.56;4896695;29;20149;-85
2023/10/02 05:46:07;;;;;;;17.15;7.70;;;;;;;19.02;85.64;99246.47;4916005;29;20210;-84
2023/10/02 05:51:12;;;;;;;22.17;7.47;;;;;;;19.02;85.95;99230.50;4909370;29;20095;-86
2023/10/02 05:54:01;;;;;;;15.68;7.18;;;;;;;18.98;85.60;99220.34;4907904;29;20071;-85
2023/10/02 05:56:45;;;;;;;21.38;6.50;;;;;;;19.10;85.68;99220.22;4896269;29;20074;-84
2023/10/02 05:59:43;;;;;;;15.10;6.72;;;;;;;19.12;85.41;99225.31;4901214;29;20171;-84
2023/10/02 06:02:27;;;;;;;17.30;6.80;;;;;;;19.13;85.47;99235.69;4908988;29;20075;-84
2023/10/02 06:05:11;;;;;;;15.13;6.07;;;;;;;19.17;85.31;99237.91;4893236;29;20124;-85
2023/10/02 06:07:59;;;;;;;20.27;7.03;;;;;;;19.27;85.47;99252.13;4881687;29;20112;-84
2023/10/02 06:10:44;;;;;;;18.35;7.32;;;;;;;19.36;85.10;99243.72;4882845;29;20072;-84
2023/10/02 06:13:37;;;;;;;15.70;6.47;;;;;;;19.33;85.15;99247.66;4886905;29;20051;-85
2023/10/02 06:16:24;;;;;;;17.48;6.35;;;;;;;19.35;85.28;99250.09;4893961;29;20128;-85
2023/10/02 06:19:15;;;;;;;16.27;7.30;;;;;;;19.30;85.25;99244.72;4920216;29;20132;-86
2023/10/02 06:24:43;;;;;;;17.80;6.43;;;;;;;19.30;84.85;99248.16;4912342;29;20035;-86
2023/10/02 06:27:41;;;;;;;19.30;6.68;;;;;;;19.38;85.27;99249.59;4902259;29;20051;-87
2023/10/02 06:30:26;;;;;;;24.17;6.57;;;;;;;19.45;85.19;99234.22;4900680;29;20067;-83
2023/10/02 06:33:10;;;;;;;20.95;6.25;;;;;;;19.54;85.21;99237.25;4897318;29;20065;-87
2023/10/02 06:36:00;;;;;;;16.95;6.68;;;;;;;19.66;85.07;99242.47;4894688;29;20127;-86
2023/10/02 06:38:48;;;;;;;19.17;6.72;;;;;;;19.83;85.34;99245.81;4908482;29;20087;-86
2023/10/02 06:41:34;;;;;;;20.55;7.82;;;;;;;20.01;85.19;99257.22;4912663;29;20056;-88
2023/10/02 06:44:20;;;;;;;21.25;7.03;;;;;;;20.02;85.17;99252.72;4902298;29;20051;-88
2023/10/02 06:47:11;;;;;;;16.00;6.65;;;;;;;20.14;85.17;99255.22;4891786;29;20055;-86
2023/10/02 06:50:03;;;;;;;22.35;7.45;;;;;;;20.16;85.17;99248.59;4894320;29;20087;-86
2023/10/02 06:52:49;;;;;;;12.55;5.75;;;;;;;20.21;85.45;99251.28;4915425;29;20051;-86
2023/10/02 06:55:34;;;;;;;17.60;6.55;;;;;;;20.27;85.12;99254.81;4920330;29;20077;-85
2023/10/02 06:58:19;;;;;;;22.52;7.32;;;;;;;20.19;85.01;99241.94;4911342;29;20456;-87
2023/10/02 07:01:04;;;;;;;22.98;8.02;;;;;;;20.35;85.25;99256.22;4890417;29;20052;-86
2023/10/02 07:03:52;;;;;;;19.25;6.95;;;;;;;20.36;84.80;99269.28;4890304;29;20097;-86
2023/10/02 07:06:39;;;;;;;15.38;6.35;;;;;;;20.44;85.38;99270.66;4906622;29;20051;-82
2023/10/02 07:09:24;;;;;;;15.73;6.68;;;;;;;20.53;84.97;99269.13;4903795;29;20131;-84
2023/10/02 07:12:08;;;;;;;17.42;6.40;;;;;;;20.61;85.00;99281.19;4903484;29;20051;-81
2023/10/02 07:15:10;;;;;;;16.13;6.32;;;;;;;20.64;84.93;99267.38;4912286;29;20584;-80
2023/10/02 07:18:00;;;;;;;21.08;6.93;;;;;;;20.81;84.89;99274.44;4902542;29;20047;-83
2023/10/02 07:20:48;;;;;;;17.38;7.20;;;;;;;20.97;85.00;99278.81;4884994;29;20182;-81
2023/10/02 07:23:37;;;;;;;13.75;6.20;;;;;;;21.07;84.81;99272.72;4891748;29;20486;-84
2023/10/02 07:26:45;;;;;;;17.95;6.80;;;;;;;21.29;84.44;99269.09;4904929;29;20043;-84
2023/10/02 07:29:37;;;;;;;18.95;6.70;;;;;;;21.42;84.60;99277.69;4913610;29;20043;-79
2023/10/02 07:32:23;;;;;;;15.57;6.22;;;;;;;21.50;83.88;99275.34;4903175;29;20052;-82
2023/10/02 07:35:09;;;;;;;20.05;6.78;;;;;;;21.44;83.05;99276.38;4901481;29;20103;-82
2023/10/02 07:38:00;;;;;;;19.23;6.47;;;;;;;21.56;83.55;99268.16;4901225;29;20108;-82
2023/10/02 07:40:48;;;;;;;16.45;6.25;;;;;;;21.58;83.62;99270.53;4887526;29;20043;-83
2023/10/02 07:43:32;;;;;;;18.15;6.55;;;;;;;21.65;83.37;99271.94;4911939;29;20450;-81
2023/10/02 07:46:18;;;;;;;12.13;5.82;;;;;;;21.70;83.37;99273.84;4910271;29;20108;-81
2023/10/02 07:49:04;;;;;;;15.43;6.35;;;;;;;21.72;82.44;99255.66;4905009;29;20060;-85
2023/10/02 07:51:48;;;;;;;14.60;6.90;;;;;;;21.77;82.92;99261.03;4902095;29;20051;-83
2023/10/02 07:54:45;;;;;;;18.23;5.75;;;;;;;21.70;79.57;99273.84;4891918;29;20104;-85
2023/10/02 07:57:33;;;;;;;17.48;6.30;;;;;;;21.73;79.18;99273.31;4893282;29;20055;-84
2023/10/02 08:03:31;;;;;;;18.80;6.20;;;;;;;22.10;77.98;99287.53;4909738;29;20629;-83
2023/10/02 08:06:36;;;;;;;13.07;5.45;;;;;;;22.21;77.81;99283.81;4911136;29;20059;-83
2023/10/02 08:09:36;;;;;;;15.10;6.03;;;;;;;22.24;78.49;99277.94;4894184;29;20102;-84
2023/10/02 08:12:30;;;;;;;16.63;5.63;;;;;;;22.43;78.62;99281.97;4905088;29;20047;-83
2023/10/02 08:15:26;;;;;;;13.20;4.77;;;;;;;22.49;78.37;99267.56;4892474;29;20119;-83
2023/10/02 08:18:17;;;;;;;16.25;5.53;;;;;;;22.77;78.18;99281.44;4903172;29;20277;-83
2023/10/02 08:21:04;;;;;;;19.20;6.10;;;;;;;22.92;77.71;99276.06;4908297;29;20047;-84
2023/10/02 08:23:52;;;;;;;14.10;6.03;;;;;;;23.02;77.33;99285.94;4912637;29;20047;-83
2023/10/02 08:26:40;;;;;;;12.25;5.70;;;;;;;23.10;76.94;99274.69;4907048;29;20116;-84
2023/10/02 08:29:26;;;;;;;16.13;5.95;;;;;;;23.25;76.92;99281.91;4905189;29;20047;-83
2023/10/02 08:32:11;;;;;;;16.05;5.32;;;;;;;23.17;77.15;99265.56;4897100;29;20051;-83
2023/10/02 08:34:57;;;;;;;14.75;5.70;;;;;;;23.19;76.20;99256.19;4892141;29;20567;-84
2023/10/02 08:37:42;;;;;;;17.08;5.47;;;;;;;23.34;75.24;99271.44;4911703;29;20104;-83
2023/10/02 08:40:26;;;;;;;15.23;4.97;;;;;;;23.34;74.92;99270.63;4890002;29;20343;-84
2023/10/02 08:43:10;;;;;;;14.38;5.72;;;;;;;23.26;74.38;99277.34;4899390;29;20099;-84
2023/10/02 08:45:55;;;;;;;15.65;6.15;;;;;;;23.36;74.29;99260.44;4892622;29;20166;-83
2023/10/02 08:48:39;;;;;;;20.45;5.65;;;;;;;23.20;73.08;99273.06;4907627;29;20047;-83
2023/10/02 08:51:32;;;;;;;20.17;5.93;;;;;;;22.87;73.34;99284.09;4908391;29;20052;-83
2023/10/02 08:54:18;;;;;;;17.15;5.60;;;;;;;22.96;73.22;99282.47;4907058;29;20915;-83
2023/10/02 08:57:06;;;;;;;15.48;5.53;;;;;;;23.19;73.50;99291.00;4896111;29;20075;-83
2023/10/02 09:00:09;;;;;;;16.80;5.68;;;;;;;23.18;73.28;99280.56;4908500;29;20072;-83
2023/10/02 09:03:14;;;;;;;17.33;5.50;;;;;;;23.11;72.66;99286.19;4903475;29;20099;-83
2023/10/02 09:06:25;;;;;;;16.65;5.15;;;;;;;23.57;72.64;99303.19;4906329;29;20047;-84
2023/10/02 09:11:58;;;;;;;14.15;5.32;;;;;;;23.19;71.76;99301.72;4908286;29;20051;-82
2023/10/02 09:14:43;;;;;;;14.68;4.90;;;;;;;23.33;72.38;99309.19;4903919;29;20119;-83
2023/10/02 09:17:44;;;;;;;15.25;5.93;;;;;;;23.42;72.51;99302.22;4907094;29;20100;-82
2023/10/02 09:21:13;;;;;;;13.60;5.30;;;;;;;23.69;72.28;99292.97;4908589;29;20059;-82
2023/10/02 09:23:49;;;;;;;16.15;6.35;;;;;;;23.81;72.88;99296.13;4906713;29;20121;-83
2023/10/02 09:26:43;;;;;;;17.67;5.70;;;;;;;24.20;72.65;99297.25;4909249;29;20410;-83
2023/10/02 09:29:27;;;;;;;18.55;6.38;;;;;;;24.34;71.96;99297.41;4895316;29;20096;-82
2023/10/02 09:32:21;;;;;;;14.57;5.90;;;;;;;24.36;70.69;99294.47;4904598;29;20048;-83
2023/10/02 09:35:10;;;;;;;;;;;;;;;24.24;70.11;99302.88;4908805;29;20103;-84
2023/10/02 09:38:03;;;;;;;15.57;5.55;;;;;;;23.63;69.29;99294.09;4892173;29;19922;-83
2023/10/02 09:43:49;;;;;;;18.17;6.05;;;;;;;23.88;70.30;99293.16;4903406;29;20509;-84
2023/10/02 09:46:35;;;;;;;15.80;5.40;;;;;;;24.32;69.50;99286.16;4892964;29;20518;-83
2023/10/02 09:49:32;;;;;;;15.73;5.88;;;;;;;23.73;68.63;99269.91;4903670;29;20054;-83
2023/10/02 09:52:33;;;;;;;17.52;6.38;;;;;;;23.99;68.90;99301.94;4904616;29;20050;-83
2023/10/02 09:55:47;;;;;;;18.63;5.50;;;;;;;23.90;69.38;99296.34;4904620;29;20052;-83
2023/10/02 09:58:37;;;;;;;17.03;6.53;;;;;;;23.89;68.74;99280.53;4904240;29;20573;-83
2023/10/02 10:04:32;;;;;;;19.10;5.70;;;;;;;24.47;68.71;99295.19;4908576;29;20550;-83
2023/10/02 10:07:35;;;;;;;12.23;5.20;;;;;;;24.89;67.74;99299.13;4902696;29;20407;-82
2023/10/02 10:10:27;;;;;;;13.05;5.00;;;;;;;25.07;67.32;99294.94;4910805;29;20067;-83
2023/10/02 10:13:36;;;;;;;14.20;4.65;;;;;;;25.13;66.46;99294.88;4889954;29;20411;-83
2023/10/02 10:16:21;;;;;;;13.73;4.40;;;;;;;25.18;66.48;99281.38;4890999;29;20570;-83
2023/10/02 10:22:04;;;;;;;18.02;5.22;;;;;;;25.09;66.81;99278.53;4910246;29;20086;-83
2023/10/02 10:28:00;;;;;;;18.40;5.10;;;;;;;25.14;66.70;99269.63;4904496;29;20517;-83
2023/10/02 10:30:50;;;;;;;17.00;5.18;;;;;;;25.33;67.67;99250.84;4902951;29;20506;-83
2023/10/02 10:33:36;;;;;;;13.43;5.57;;;;;;;25.46;65.13;99249.38;4908640;29;20123;-83
2023/10/02 10:36:34;;;;;;;11.95;5.40;;;;;;;25.37;65.45;99241.94;4905408;29;20084;-83
2023/10/02 10:39:57;;;;;;;16.10;5.35;;;;;;;24.79;66.23;99232.91;4903246;29;20042;-83
2023/10/02 10:43:12;;;;;;;17.17;6.78;;;;;;;24.23;65.79;99223.50;4890071;29;20521;-84
2023/10/02 10:45:56;;;;;;;14.15;5.97;;;;;;;23.83;66.77;99236.88;4901727;29;20459;-82
2023/10/02 10:48:41;;;;;;;13.48;5.80;;;;;;;23.74;67.15;99233.19;4901899;29;20043;-83
2023/10/02 10:51:27;;;;;;;17.30;5.68;;;;;;;23.81;68.04;99236.34;4889548;29;20533;-83
2023/10/02 10:54:41;;;;;;;11.65;5.25;;;;;;;23.70;68.34;99222.22;4901293;29;20047;-82
2023/10/02 10:57:22;;;;;;;17.10;4.95;;;;;;;23.74;67.87;99220.59;4908352;29;20051;-83
2023/10/02 11:00:28;;;;;;;15.93;5.28;;;;;;;23.58;67.44;99216.38;4902953;29;20035;-83
2023/10/02 11:03:19;;;;;;;17.83;5.47;;;;;;;23.94;67.86;99218.84;4902492;29;20047;-83
2023/10/02 11:06:04;;;;;;;11.15;4.82;;;;;;;24.29;68.13;99208.94;4903134;29;20148;-84
2023/10/02 11:09:24;;;;;;;19.25;5.15;;;;;;;24.57;67.30;99201.19;4908458;29;20090;-83
2023/10/02 11:12:12;;;;;;;17.90;4.97;;;;;;;24.82;67.64;99204.72;4817420;29;20137;-84
2023/10/02 11:14:56;;;;;;;11.73;4.32;;;;;;;25.43;66.42;99201.53;4905393;29;20474;-83
2023/10/02 11:17:42;;;;;;;14.93;4.35;;;;;;;25.62;66.19;99198.91;4903515;29;20043;-82
2023/10/02 11:20:33;;;;;;;14.40;4.55;;;;;;;25.86;65.19;99198.00;4908712;29;20175;-82
2023/10/02 11:23:29;;;;;;;15.77;4.72;;;;;;;25.96;64.48;99211.31;4886972;29;20096;-83
2023/10/02 11:26:13;;;;;;;13.48;4.18;;;;;;;25.88;64.80;99209.28;4905818;29;20127;-83
2023/10/02 11:28:57;;;;;;;12.90;4.90;;;;;;;25.88;64.17;99209.28;4902885;29;20120;-83
2023/10/02 11:31:45;;;;;;;13.55;4.40;;;;;;;26.70;62.95;99190.16;4893527;29;20040;-82
2023/10/02 11:34:29;;;;;;;13.30;3.97;;;;;;;26.81;62.78;99186.19;4891389;29;20096;-83
2023/10/02 11:37:14;;;;;;;9.88;4.13;;;;;;;27.48;61.74;99184.78;4905841;29;20123;-82
2023/10/02 11:40:00;;;;;;;8.90;3.30;;;;;;;27.31;60.57;99173.84;4891432;29;20398;-84
2023/10/02 11:42:44;;;;;;;12.63;3.92;;;;;;;27.91;59.88;99172.78;4896517;29;20038;-82
2023/10/02 11:45:29;;;;;;;9.32;3.63;;;;;;;28.36;59.32;99180.03;4907391;29;20047;-83
2023/10/02 11:48:13;;;;;;;10.20;3.65;;;;;;;28.64;55.18;99182.53;4890179;29;20095;-82
2023/10/02 11:50:57;;;;;;;10.05;3.30;;;;;;;29.01;55.58;99176.16;4892661;29;20043;-83
2023/10/02 11:53:41;;;;;;;7.80;3.58;;;;;;;29.06;53.82;99184.09;4904870;29;20100;-82
2023/10/02 11:56:28;;;;;;;6.93;3.33;;;;;;;28.35;52.50;99189.25;4907221;29;20042;-82
2023/10/02 11:59:15;;;;;;;9.02;3.30;;;;;;;28.44;53.08;99192.00;4905753;29;20102;-82
2023/10/02 12:01:59;;;;;;;4.30;2.53;;;;;;;28.14;52.96;99190.84;4912278;29;20393;-81
2023/10/02 12:04:44;;;;;;;6.30;3.22;;;;;;;27.83;52.78;99197.81;4893737;29;20538;-82
2023/10/02 12:07:28;;;;;;;10.98;3.25;;;;;;;27.12;54.12;99192.88;4905082;29;20108;-81
2023/10/02 12:10:15;;;;;;;7.95;3.33;;;;;;;26.82;54.34;99201.22;4894783;29;20075;-81
2023/10/02 12:13:02;;;;;;;10.65;3.10;;;;;;;27.12;54.47;99198.25;4895717;29;20399;-80
2023/10/02 12:15:46;;;;;;;7.63;3.28;;;;;;;27.09;55.47;99215.81;4906400;29;20078;-81
2023/10/02 12:18:32;;;;;;;8.50;3.33;;;;;;;27.02;56.21;99208.16;4891837;29;20048;-81
2023/10/02 12:21:19;;;;;;;9.63;3.53;;;;;;;26.81;57.42;99205.03;4912099;29;20153;-81
2023/10/02 12:24:05;;;;;;;8.32;3.35;;;;;;;26.67;57.53;99200.41;4911075;29;20455;-81
2023/10/02 12:26:49;;;;;;;13.07;3.28;;;;;;;26.43;58.60;99215.94;4895525;29;20047;-81
2023/10/02 12:29:34;;;;;;;9.13;3.38;;;;;;;26.46;58.52;99197.31;4905660;29;20104;-81
2023/10/02 12:32:18;;;;;;;8.32;3.25;;;;;;;26.37;58.79;99207.97;4907434;29;20059;-82
2023/10/02 12:35:05;;;;;;;9.73;3.75;;;;;;;25.94;59.14;99181.19;4895639;29;20107;-80
2023/10/02 12:37:52;;;;;;;11.45;3.42;;;;;;;25.85;59.46;99186.47;4893250;29;20051;-82
2023/10/02 12:40:36;;;;;;;9.63;4.15;;;;;;;25.59;60.52;99180.69;4910745;29;20077;-80
2023/10/02 12:43:20;;;;;;;10.15;3.92;;;;;;;25.72;60.04;99198.75;4906760;29;20055;-80
2023/10/02 12:46:04;;;;;;;11.05;4.00;;;;;;;25.58;60.28;99192.53;4908516;29;20121;-82
2023/10/02 12:48:50;;;;;;;10.93;3.90;;;;;;;25.36;60.63;99191.19;4900287;29;20095;-81
2023/10/02 12:51:34;;;;;;;11.85;3.70;;;;;;;25.12;61.22;99178.56;4908750;29;20063;-82
2023/10/02 12:54:19;;;;;;;10.63;3.92;;;;;;;24.91;62.77;99189.56;4906877;29;20425;-82
2023/10/02 12:57:04;;;;;;;10.38;4.22;;;;;;;24.88;62.38;99187.47;4905797;29;20046;-81
2023/10/02 12:59:48;;;;;;;10.73;4.13;;;;;;;24.73;63.76;99169.63;4892809;29;20051;-82
2023/10/02 13:02:32;;;;;;;9.65;3.75;;;;;;;24.71;64.57;99170.97;4895413;29;20518;-81
2023/10/02 13:05:18;;;;;;;10.50;4.30;;;;;;;24.70;65.88;99169.38;4892542;29;20510;-81
2023/10/02 13:08:03;;;;;;;7.97;3.75;;;;;;;24.73;65.61;99168.81;4895014;29;20054;-81
2023/10/02 13:10:48;;;;;;;12.48;5.03;;;;;;;24.76;66.38;99173.63;4891470;29;20059;-81
2023/10/02 13:13:32;;;;;;;9.32;3.47;;;;;;;24.77;66.74;99169.88;4895684;29;20102;-81
2023/10/02 13:16:18;;;;;;;8.30;3.65;;;;;;;24.60;66.96;99164.94;4889234;29;20075;-80
2023/10/02 13:19:09;;;;;;;12.73;4.28;;;;;;;24.62;66.63;99174.31;4907892;29;20501;-80
2023/10/02 13:21:53;;;;;;;8.00;3.88;;;;;;;24.70;66.65;99174.75;4889724;29;20468;-81
2023/10/02 13:24:37;;;;;;;10.75;4.32;;;;;;;24.65;66.84;99176.41;4885285;29;20048;-80
2023/10/02 13:27:21;;;;;;;9.77;4.38;;;;;;;24.50;66.74;99187.28;4896069;29;20039;-81
2023/10/02 13:30:11;;;;;;;6.55;4.03;;;;;;;24.45;67.68;99185.47;4910677;29;20131;-80
2023/10/02 13:32:56;;;;;;;15.43;4.78;;;;;;;24.43;68.21;99187.63;4892122;29;20087;-82
2023/10/02 13:35:44;;;;;;;12.02;4.72;;;;;;;24.46;68.59;99170.19;4891949;29;20055;-82
2023/10/02 13:38:28;;;;;;;9.32;4.10;;;;;;;24.51;68.96;99164.75;4893657;29;20093;-81
2023/10/02 13:41:12;;;;;;;9.35;4.70;;;;;;;24.49;69.86;99145.44;4891509;29;20052;-82
2023/10/02 13:43:56;;;;;;;10.73;4.80;;;;;;;24.60;69.58;99120.13;4880905;29;20083;-82